sensor_id;sensor_type;location;lat;lon;timestamp;pressure;altitude;pressure_sealevel;temperature;humidity
34674;BME280;20879;55.668;37.858;2023-08-06T00:02:05;100084.69;;;21.67;81.09
34674;BME280;20879;55.668;37.858;2023-08-06T00:04:38;100086.78;;;21.60;81.94
34674;BME280;20879;55.668;37.858;2023-08-06T00:07:09;100089.94;;;21.51;82.82
34674;BME280;20879;55.668;37.858;2023-08-06T00:09:39;100083.38;;;21.42;83.39
34674;BME280;20879;55.668;37.858;2023-08-06T00:12:08;100088.63;;;21.42;83.49
34674;BME280;20879;55.668;37.858;2023-08-06T00:14:38;100093.81;;;21.44;83.74
34674;BME280;20879;55.668;37.858;2023-08-06T00:17:11;100091.28;;;21.42;83.99
34674;BME280;20879;55.668;37.858;2023-08-06T00:19:46;100081.66;;;21.41;84.64
34674;BME280;20879;55.668;37.858;2023-08-06T00:22:26;100083.69;;;21.36;84.55
34674;BME280;20879;55.668;37.858;2023-08-06T00:24:57;100095.28;;;21.50;85.18
34674;BME280;20879;55.668;37.858;2023-08-06T00:27:49;100092.72;;;21.48;84.75
34674;BME280;20879;55.668;37.858;2023-08-06T00:30:18;100084.97;;;21.29;83.92
34674;BME280;20879;55.668;37.858;2023-08-06T00:32:52;100083.69;;;21.20;85.85
34674;BME280;20879;55.668;37.858;2023-08-06T00:35:26;100085.88;;;21.12;85.75
34674;BME280;20879;55.668;37.858;2023-08-06T00:38:03;100082.59;;;21.07;86.71
34674;BME280;20879;55.668;37.858;2023-08-06T00:40:36;100082.00;;;21.02;87.45
34674;BME280;20879;55.668;37.858;2023-08-06T00:43:14;100087.53;;;20.97;87.14
34674;BME280;20879;55.668;37.858;2023-08-06T00:45:48;100087.78;;;20.92;87.66
34674;BME280;20879;55.668;37.858;2023-08-06T00:48:18;100092.09;;;20.93;87.43
34674;BME280;20879;55.668;37.858;2023-08-06T00:50:50;100093.78;;;20.94;87.32
34674;BME280;20879;55.668;37.858;2023-08-06T00:53:24;100092.72;;;20.99;86.64
34674;BME280;20879;55.668;37.858;2023-08-06T00:55:55;100082.94;;;21.01;85.87
34674;BME280;20879;55.668;37.858;2023-08-06T00:58:26;100090.47;;;21.08;85.74
34674;BME280;20879;55.668;37.858;2023-08-06T01:00:55;100094.69;;;21.11;85.49
34674;BME280;20879;55.668;37.858;2023-08-06T01:03:28;100089.25;;;21.14;85.30
34674;BME280;20879;55.668;37.858;2023-08-06T01:06:00;100099.63;;;21.17;85.19
34674;BME280;20879;55.668;37.858;2023-08-06T01:08:41;100100.47;;;21.18;85.08
34674;BME280;20879;55.668;37.858;2023-08-06T01:11:29;100096.97;;;21.17;85.14
34674;BME280;20879;55.668;37.858;2023-08-06T01:14:07;100101.41;;;21.17;84.55
34674;BME280;20879;55.668;37.858;2023-08-06T01:16:37;100108.47;;;21.16;84.69
34674;BME280;20879;55.668;37.858;2023-08-06T01:19:16;100098.78;;;21.17;84.43
34674;BME280;20879;55.668;37.858;2023-08-06T01:21:48;100096.31;;;21.13;84.46
34674;BME280;20879;55.668;37.858;2023-08-06T01:24:22;100085.88;;;21.12;84.63
34674;BME280;20879;55.668;37.858;2023-08-06T01:26:57;100091.13;;;21.12;85.04
34674;BME280;20879;55.668;37.858;2023-08-06T01:29:36;100095.56;;;21.11;84.90
34674;BME280;20879;55.668;37.858;2023-08-06T01:32:10;100094.34;;;21.01;85.50
34674;BME280;20879;55.668;37.858;2023-08-06T01:34:43;100090.53;;;20.89;86.58
34674;BME280;20879;55.668;37.858;2023-08-06T01:37:16;100096.13;;;20.83;86.67
34674;BME280;20879;55.668;37.858;2023-08-06T01:39:46;100062.22;;;20.59;86.91
34674;BME280;20879;55.668;37.858;2023-08-06T01:42:17;100111.91;;;20.83;87.39
34674;BME280;20879;55.668;37.858;2023-08-06T01:44:47;100113.09;;;20.77;87.61
34674;BME280;20879;55.668;37.858;2023-08-06T01:47:17;100117.50;;;20.77;87.99
34674;BME280;20879;55.668;37.858;2023-08-06T01:49:47;100117.50;;;20.77;87.42
34674;BME280;20879;55.668;37.858;2023-08-06T01:52:26;100118.13;;;20.82;87.51
34674;BME280;20879;55.668;37.858;2023-08-06T01:54:58;100110.91;;;20.86;86.87
34674;BME280;20879;55.668;37.858;2023-08-06T01:57:30;100119.44;;;20.91;87.04
34674;BME280;20879;55.668;37.858;2023-08-06T02:00:07;100118.41;;;20.93;86.87
34674;BME280;20879;55.668;37.858;2023-08-06T02:02:43;100111.47;;;20.92;87.00
34674;BME280;20879;55.668;37.858;2023-08-06T02:05:18;100116.56;;;20.95;86.84
34674;BME280;20879;55.668;37.858;2023-08-06T02:08:02;100117.94;;;21.03;86.23
34674;BME280;20879;55.668;37.858;2023-08-06T02:10:32;100121.34;;;21.05;86.00
34674;BME280;20879;55.668;37.858;2023-08-06T02:13:06;100127.44;;;21.05;86.29
34674;BME280;20879;55.668;37.858;2023-08-06T02:15:36;100119.72;;;21.02;86.11
34674;BME280;20879;55.668;37.858;2023-08-06T02:18:12;100131.13;;;21.03;86.64
34674;BME280;20879;55.668;37.858;2023-08-06T02:20:42;100123.38;;;21.00;86.65
34674;BME280;20879;55.668;37.858;2023-08-06T02:23:14;100123.88;;;21.06;86.60
34674;BME280;20879;55.668;37.858;2023-08-06T02:25:53;100135.13;;;21.10;86.36
34674;BME280;20879;55.668;37.858;2023-08-06T02:28:27;100123.41;;;21.16;85.66
34674;BME280;20879;55.668;37.858;2023-08-06T02:30:58;100129.03;;;21.25;85.73
34674;BME280;20879;55.668;37.858;2023-08-06T02:33:29;100136.81;;;21.44;84.95
34674;BME280;20879;55.668;37.858;2023-08-06T02:36:01;100138.44;;;21.47;84.14
34674;BME280;20879;55.668;37.858;2023-08-06T02:38:32;100130.78;;;21.42;84.02
34674;BME280;20879;55.668;37.858;2023-08-06T02:41:02;100130.78;;;21.42;83.72
34674;BME280;20879;55.668;37.858;2023-08-06T02:43:39;100137.38;;;21.51;83.75
34674;BME280;20879;55.668;37.858;2023-08-06T02:46:15;100125.88;;;21.52;83.72
34674;BME280;20879;55.668;37.858;2023-08-06T02:48:49;100134.66;;;21.69;83.03
34674;BME280;20879;55.668;37.858;2023-08-06T02:51:20;100128.44;;;21.86;82.04
34674;BME280;20879;55.668;37.858;2023-08-06T02:53:52;100126.72;;;22.00;80.78
34674;BME280;20879;55.668;37.858;2023-08-06T02:56:32;100133.19;;;22.11;80.68
34674;BME280;20879;55.668;37.858;2023-08-06T02:59:11;100130.91;;;22.05;80.36
34674;BME280;20879;55.668;37.858;2023-08-06T03:02:00;100137.72;;;22.09;80.04
34674;BME280;20879;55.668;37.858;2023-08-06T03:04:40;100142.91;;;22.10;79.95
34674;BME280;20879;55.668;37.858;2023-08-06T03:07:24;100140.88;;;22.15;79.84
34674;BME280;20879;55.668;37.858;2023-08-06T03:10:01;100138.53;;;22.25;79.59
34674;BME280;20879;55.668;37.858;2023-08-06T03:12:30;100137.19;;;22.34;78.94
34674;BME280;20879;55.668;37.858;2023-08-06T03:15:06;100141.06;;;22.43;78.67
34674;BME280;20879;55.668;37.858;2023-08-06T03:17:36;100132.97;;;22.46;77.91
34674;BME280;20879;55.668;37.858;2023-08-06T03:20:11;100131.13;;;22.48;77.72
34674;BME280;20879;55.668;37.858;2023-08-06T03:22:40;100129.06;;;22.53;77.08
34674;BME280;20879;55.668;37.858;2023-08-06T03:25:13;100132.19;;;22.60;77.05
34674;BME280;20879;55.668;37.858;2023-08-06T03:27:46;100125.03;;;22.62;76.50
34674;BME280;20879;55.668;37.858;2023-08-06T03:30:19;100124.50;;;22.71;76.01
34674;BME280;20879;55.668;37.858;2023-08-06T03:32:52;100124.22;;;22.76;75.66
34674;BME280;20879;55.668;37.858;2023-08-06T03:35:22;100121.94;;;22.84;75.67
34674;BME280;20879;55.668;37.858;2023-08-06T03:37:58;100123.47;;;22.88;74.66
34674;BME280;20879;55.668;37.858;2023-08-06T03:40:30;100135.75;;;22.89;74.33
34674;BME280;20879;55.668;37.858;2023-08-06T03:43:00;100131.56;;;22.85;74.33
34674;BME280;20879;55.668;37.858;2023-08-06T03:45:30;100136.66;;;22.88;74.05
34674;BME280;20879;55.668;37.858;2023-08-06T03:48:01;100137.06;;;22.96;73.99
34674;BME280;20879;55.668;37.858;2023-08-06T03:50:31;100136.16;;;23.12;73.35
34674;BME280;20879;55.668;37.858;2023-08-06T03:53:01;100129.75;;;23.16;73.15
34674;BME280;20879;55.668;37.858;2023-08-06T03:55:34;100125.78;;;23.37;72.40
34674;BME280;20879;55.668;37.858;2023-08-06T03:58:11;100132.19;;;23.62;71.53
34674;BME280;20879;55.668;37.858;2023-08-06T04:00:43;100112.50;;;23.81;70.48
34674;BME280;20879;55.668;37.858;2023-08-06T04:03:14;100120.97;;;24.00;69.57
34674;BME280;20879;55.668;37.858;2023-08-06T04:05:45;100123.59;;;24.15;69.20
34674;BME280;20879;55.668;37.858;2023-08-06T04:08:14;100117.56;;;24.25;68.93
34674;BME280;20879;55.668;37.858;2023-08-06T04:10:45;100110.28;;;24.29;68.10
34674;BME280;20879;55.668;37.858;2023-08-06T04:13:22;100117.41;;;24.41;68.08
34674;BME280;20879;55.668;37.858;2023-08-06T04:16:01;100117.00;;;24.48;67.39
34674;BME280;20879;55.668;37.858;2023-08-06T04:18:38;100112.97;;;24.55;67.61
34674;BME280;20879;55.668;37.858;2023-08-06T04:21:08;100110.72;;;24.63;67.58
34674;BME280;20879;55.668;37.858;2023-08-06T04:23:40;100121.50;;;24.73;67.10
34674;BME280;20879;55.668;37.858;2023-08-06T04:26:14;100118.97;;;24.84;66.72
34674;BME280;20879;55.668;37.858;2023-08-06T04:28:45;100118.44;;;24.92;66.70
34674;BME280;20879;55.668;37.858;2023-08-06T04:31:22;100114.31;;;25.01;66.05
34674;BME280;20879;55.668;37.858;2023-08-06T04:33:55;100120.47;;;25.01;65.76
34674;BME280;20879;55.668;37.858;2023-08-06T04:36:27;100118.34;;;25.06;65.83
34674;BME280;20879;55.668;37.858;2023-08-06T04:38:58;100123.31;;;25.24;65.65
34674;BME280;20879;55.668;37.858;2023-08-06T04:41:33;100119.63;;;25.39;65.05
34674;BME280;20879;55.668;37.858;2023-08-06T04:44:09;100080.91;;;25.24;64.67
34674;BME280;20879;55.668;37.858;2023-08-06T04:46:44;100115.31;;;25.62;64.24
34674;BME280;20879;55.668;37.858;2023-08-06T04:49:15;100108.81;;;25.67;64.15
34674;BME280;20879;55.668;37.858;2023-08-06T04:51:49;100126.63;;;25.77;63.40
34674;BME280;20879;55.668;37.858;2023-08-06T04:54:21;100114.19;;;25.78;63.99
34674;BME280;20879;55.668;37.858;2023-08-06T04:56:53;100118.91;;;25.74;63.33
34674;BME280;20879;55.668;37.858;2023-08-06T04:59:31;100115.72;;;25.69;63.51
34674;BME280;20879;55.668;37.858;2023-08-06T05:02:06;100116.59;;;25.70;63.82
34674;BME280;20879;55.668;37.858;2023-08-06T05:04:38;100121.03;;;25.69;63.94
34674;BME280;20879;55.668;37.858;2023-08-06T05:07:10;100118.91;;;25.74;63.84
34674;BME280;20879;55.668;37.858;2023-08-06T05:09:42;100116.25;;;25.74;64.07
34674;BME280;20879;55.668;37.858;2023-08-06T05:12:18;100113.03;;;25.82;63.76
34674;BME280;20879;55.668;37.858;2023-08-06T05:14:56;100108.50;;;25.95;63.80
34674;BME280;20879;55.668;37.858;2023-08-06T05:17:32;100106.06;;;26.05;63.00
34674;BME280;20879;55.668;37.858;2023-08-06T05:20:10;100113.03;;;26.06;63.68
34674;BME280;20879;55.668;37.858;2023-08-06T05:22:42;100108.19;;;26.00;63.37
34674;BME280;20879;55.668;37.858;2023-08-06T05:25:13;100104.59;;;26.01;63.27
34674;BME280;20879;55.668;37.858;2023-08-06T05:27:48;100104.25;;;26.06;63.15
34674;BME280;20879;55.668;37.858;2023-08-06T05:30:23;100105.91;;;26.20;63.40
34674;BME280;20879;55.668;37.858;2023-08-06T05:32:53;100105.16;;;26.17;63.53
34674;BME280;20879;55.668;37.858;2023-08-06T05:35:32;100095.22;;;26.08;63.74
34674;BME280;20879;55.668;37.858;2023-08-06T05:38:02;100095.22;;;26.08;63.69
34674;BME280;20879;55.668;37.858;2023-08-06T05:40:33;100093.28;;;26.10;63.45
34674;BME280;20879;55.668;37.858;2023-08-06T05:43:05;100100.72;;;26.18;63.64
34674;BME280;20879;55.668;37.858;2023-08-06T05:45:36;100104.69;;;26.24;63.18
34674;BME280;20879;55.668;37.858;2023-08-06T05:48:14;100097.47;;;26.26;62.72
34674;BME280;20879;55.668;37.858;2023-08-06T05:50:46;100099.88;;;26.29;63.14
34674;BME280;20879;55.668;37.858;2023-08-06T05:53:21;100099.19;;;26.38;63.18
34674;BME280;20879;55.668;37.858;2023-08-06T05:55:55;100099.47;;;26.46;63.00
34674;BME280;20879;55.668;37.858;2023-08-06T05:58:29;100095.63;;;26.50;62.62
34674;BME280;20879;55.668;37.858;2023-08-06T06:01:02;100098.00;;;26.42;63.52
34674;BME280;20879;55.668;37.858;2023-08-06T06:03:35;100095.47;;;26.41;62.91
34674;BME280;20879;55.668;37.858;2023-08-06T06:06:08;100094.16;;;26.46;63.36
34674;BME280;20879;55.668;37.858;2023-08-06T06:08:40;100094.03;;;26.48;63.39
34674;BME280;20879;55.668;37.858;2023-08-06T06:11:13;100076.16;;;26.39;63.25
34674;BME280;20879;55.668;37.858;2023-08-06T06:13:45;100090.31;;;26.50;62.91
34674;BME280;20879;55.668;37.858;2023-08-06T06:16:19;100079.69;;;26.50;62.84
34674;BME280;20879;55.668;37.858;2023-08-06T06:18:51;100091.16;;;26.51;62.39
34674;BME280;20879;55.668;37.858;2023-08-06T06:21:31;100085.59;;;26.54;62.64
34674;BME280;20879;55.668;37.858;2023-08-06T06:24:11;100091.44;;;26.71;62.83
34674;BME280;20879;55.668;37.858;2023-08-06T06:26:43;100086.66;;;26.87;61.73
34674;BME280;20879;55.668;37.858;2023-08-06T06:29:15;100088.22;;;27.01;60.69
34674;BME280;20879;55.668;37.858;2023-08-06T06:31:51;100084.25;;;27.18;60.81
34674;BME280;20879;55.668;37.858;2023-08-06T06:34:22;100082.94;;;27.24;60.17
34674;BME280;20879;55.668;37.858;2023-08-06T06:36:55;100082.94;;;27.24;59.75
34674;BME280;20879;55.668;37.858;2023-08-06T06:39:27;100072.28;;;27.12;60.09
34674;BME280;20879;55.668;37.858;2023-08-06T06:41:57;100063.13;;;27.05;59.96
34674;BME280;20879;55.668;37.858;2023-08-06T06:44:41;100080.28;;;27.35;59.88
34674;BME280;20879;55.668;37.858;2023-08-06T06:47:16;100074.81;;;27.25;60.26
34674;BME280;20879;55.668;37.858;2023-08-06T06:49:47;100081.25;;;27.34;60.82
34674;BME280;20879;55.668;37.858;2023-08-06T06:52:19;100080.13;;;27.48;60.47
34674;BME280;20879;55.668;37.858;2023-08-06T06:54:53;100079.19;;;27.49;59.62
34674;BME280;20879;55.668;37.858;2023-08-06T06:57:23;100078.81;;;27.53;59.59
34674;BME280;20879;55.668;37.858;2023-08-06T06:59:55;100076.38;;;27.62;59.58
34674;BME280;20879;55.668;37.858;2023-08-06T07:02:31;100072.25;;;27.69;59.88
34674;BME280;20879;55.668;37.858;2023-08-06T07:05:00;100064.50;;;27.66;59.84
34674;BME280;20879;55.668;37.858;2023-08-06T07:07:34;100068.53;;;27.60;59.12
34674;BME280;20879;55.668;37.858;2023-08-06T07:10:08;100061.84;;;27.66;59.81
34674;BME280;20879;55.668;37.858;2023-08-06T07:12:38;100065.22;;;27.79;59.29
34674;BME280;20879;55.668;37.858;2023-08-06T07:15:11;100063.22;;;27.93;58.56
34674;BME280;20879;55.668;37.858;2023-08-06T07:17:59;100066.72;;;28.04;58.01
34674;BME280;20879;55.668;37.858;2023-08-06T07:20:29;100061.84;;;28.10;57.98
34674;BME280;20879;55.668;37.858;2023-08-06T07:23:03;100065.09;;;28.13;57.91
34674;BME280;20879;55.668;37.858;2023-08-06T07:25:35;100057.91;;;28.25;57.68
34674;BME280;20879;55.668;37.858;2023-08-06T07:28:04;100057.50;;;28.30;57.14
34674;BME280;20879;55.668;37.858;2023-08-06T07:30:45;100062.19;;;28.37;57.33
34674;BME280;20879;55.668;37.858;2023-08-06T07:33:20;100063.59;;;28.41;56.77
34674;BME280;20879;55.668;37.858;2023-08-06T07:35:51;100057.44;;;28.41;56.36
34674;BME280;20879;55.668;37.858;2023-08-06T07:38:25;100053.56;;;28.45;57.16
34674;BME280;20879;55.668;37.858;2023-08-06T07:40:56;100053.03;;;28.51;56.73
34674;BME280;20879;55.668;37.858;2023-08-06T07:43:25;100055.28;;;28.56;56.24
34674;BME280;20879;55.668;37.858;2023-08-06T07:46:00;100048.41;;;28.53;56.13
34674;BME280;20879;55.668;37.858;2023-08-06T07:48:34;100054.25;;;28.68;55.75
34674;BME280;20879;55.668;37.858;2023-08-06T07:51:05;100052.31;;;28.70;55.63
34674;BME280;20879;55.668;37.858;2023-08-06T07:53:35;100059.91;;;28.75;55.70
34674;BME280;20879;55.668;37.858;2023-08-06T07:56:07;100051.91;;;28.75;56.16
34674;BME280;20879;55.668;37.858;2023-08-06T07:58:37;100051.91;;;28.75;55.85
34674;BME280;20879;55.668;37.858;2023-08-06T08:01:08;100043.88;;;28.65;54.80
34674;BME280;20879;55.668;37.858;2023-08-06T08:03:44;100055.56;;;28.53;55.92
34674;BME280;20879;55.668;37.858;2023-08-06T08:06:14;100053.97;;;28.62;55.80
34674;BME280;20879;55.668;37.858;2023-08-06T08:08:53;100054.03;;;28.71;55.75
34674;BME280;20879;55.668;37.858;2023-08-06T08:11:23;100054.03;;;28.71;55.69
34674;BME280;20879;55.668;37.858;2023-08-06T08:13:54;100047.81;;;28.71;55.30
34674;BME280;20879;55.668;37.858;2023-08-06T08:16:26;100049.94;;;28.77;55.13
34674;BME280;20879;55.668;37.858;2023-08-06T08:18:58;100038.94;;;28.82;55.24
34674;BME280;20879;55.668;37.858;2023-08-06T08:21:29;100039.34;;;28.87;55.05
34674;BME280;20879;55.668;37.858;2023-08-06T08:23:59;100033.66;;;29.01;54.69
34674;BME280;20879;55.668;37.858;2023-08-06T08:26:34;100033.69;;;29.11;54.39
34674;BME280;20879;55.668;37.858;2023-08-06T08:29:06;100033.16;;;29.17;54.16
34674;BME280;20879;55.668;37.858;2023-08-06T08:31:37;100035.53;;;29.20;54.09
34674;BME280;20879;55.668;37.858;2023-08-06T08:34:07;100031.47;;;29.16;54.11
34674;BME280;20879;55.668;37.858;2023-08-06T08:36:42;100030.75;;;29.14;54.07
34674;BME280;20879;55.668;37.858;2023-08-06T08:39:16;100022.50;;;29.17;54.41
34674;BME280;20879;55.668;37.858;2023-08-06T08:41:46;100027.53;;;29.20;54.14
34674;BME280;20879;55.668;37.858;2023-08-06T08:44:16;100028.13;;;29.24;53.86
34674;BME280;20879;55.668;37.858;2023-08-06T08:46:53;100028.44;;;29.31;54.06
34674;BME280;20879;55.668;37.858;2023-08-06T08:49:24;100034.06;;;29.27;53.52
34674;BME280;20879;55.668;37.858;2023-08-06T08:51:54;100032.09;;;29.29;53.52
34674;BME280;20879;55.668;37.858;2023-08-06T08:54:24;100022.00;;;29.33;53.52
34674;BME280;20879;55.668;37.858;2023-08-06T08:56:54;100016.09;;;29.29;53.67
34674;BME280;20879;55.668;37.858;2023-08-06T08:59:33;100022.13;;;29.32;52.86
34674;BME280;20879;55.668;37.858;2023-08-06T09:02:13;100016.94;;;29.40;52.55
34674;BME280;20879;55.668;37.858;2023-08-06T09:04:48;100009.81;;;29.40;52.86
34674;BME280;20879;55.668;37.858;2023-08-06T09:07:23;100008.81;;;29.41;52.40
34674;BME280;20879;55.668;37.858;2023-08-06T09:10:02;100009.50;;;29.34;51.98
34674;BME280;20879;55.668;37.858;2023-08-06T09:12:38;100010.91;;;29.38;52.38
34674;BME280;20879;55.668;37.858;2023-08-06T09:15:08;100011.34;;;29.43;51.94
34674;BME280;20879;55.668;37.858;2023-08-06T09:17:45;100009.81;;;29.50;52.09
34674;BME280;20879;55.668;37.858;2023-08-06T09:20:20;99979.75;;;29.48;51.60
34674;BME280;20879;55.668;37.858;2023-08-06T09:22:52;100011.94;;;29.76;51.42
34674;BME280;20879;55.668;37.858;2023-08-06T09:25:23;100005.78;;;29.85;51.44
34674;BME280;20879;55.668;37.858;2023-08-06T09:27:55;100000.00;;;29.90;51.12
34674;BME280;20879;55.668;37.858;2023-08-06T09:30:32;100011.41;;;29.92;50.44
34674;BME280;20879;55.668;37.858;2023-08-06T09:33:10;100006.59;;;29.95;49.74
34674;BME280;20879;55.668;37.858;2023-08-06T09:35:42;99996.38;;;30.01;49.52
34674;BME280;20879;55.668;37.858;2023-08-06T09:38:12;100002.81;;;30.08;49.90
34674;BME280;20879;55.668;37.858;2023-08-06T09:40:48;99988.47;;;30.09;49.62
34674;BME280;20879;55.668;37.858;2023-08-06T09:43:19;99990.59;;;30.15;50.08
34674;BME280;20879;55.668;37.858;2023-08-06T09:45:48;99990.16;;;30.20;49.98
34674;BME280;20879;55.668;37.858;2023-08-06T09:48:24;99971.34;;;30.02;49.79
34674;BME280;20879;55.668;37.858;2023-08-06T09:50:56;99986.66;;;30.00;50.75
34674;BME280;20879;55.668;37.858;2023-08-06T09:53:26;99989.63;;;30.06;50.26
34674;BME280;20879;55.668;37.858;2023-08-06T09:55:56;99976.66;;;30.21;50.10
34674;BME280;20879;55.668;37.858;2023-08-06T09:58:26;99981.84;;;30.32;49.57
34674;BME280;20879;55.668;37.858;2023-08-06T10:00:56;99970.97;;;30.44;49.09
34674;BME280;20879;55.668;37.858;2023-08-06T10:03:34;99975.34;;;30.45;48.33
34674;BME280;20879;55.668;37.858;2023-08-06T10:06:04;99961.84;;;30.46;48.50
34674;BME280;20879;55.668;37.858;2023-08-06T10:08:36;99962.69;;;30.47;48.93
34674;BME280;20879;55.668;37.858;2023-08-06T10:11:14;99956.78;;;30.53;48.34
34674;BME280;20879;55.668;37.858;2023-08-06T10:13:43;99952.31;;;30.72;48.86
34674;BME280;20879;55.668;37.858;2023-08-06T10:16:19;99956.97;;;30.70;47.89
34674;BME280;20879;55.668;37.858;2023-08-06T10:18:53;99954.25;;;30.52;48.30
34674;BME280;20879;55.668;37.858;2023-08-06T10:21:24;99944.28;;;30.44;48.11
34674;BME280;20879;55.668;37.858;2023-08-06T10:23:54;99948.84;;;30.61;48.47
34674;BME280;20879;55.668;37.858;2023-08-06T10:26:28;99945.47;;;30.69;47.83
34674;BME280;20879;55.668;37.858;2023-08-06T10:28:59;99945.09;;;30.82;47.61
34674;BME280;20879;55.668;37.858;2023-08-06T10:31:55;99953.22;;;30.90;47.44
34674;BME280;20879;55.668;37.858;2023-08-06T10:34:53;99942.03;;;30.77;46.91
34674;BME280;20879;55.668;37.858;2023-08-06T10:37:24;99940.97;;;30.60;47.53
34674;BME280;20879;55.668;37.858;2023-08-06T10:39:54;99935.09;;;30.56;48.12
34674;BME280;20879;55.668;37.858;2023-08-06T10:42:28;99938.16;;;30.61;48.91
34674;BME280;20879;55.668;37.858;2023-08-06T10:45:16;99947.81;;;30.72;48.92
34674;BME280;20879;55.668;37.858;2023-08-06T10:47:48;99940.03;;;30.79;47.50
34674;BME280;20879;55.668;37.858;2023-08-06T10:50:20;99936.91;;;30.83;47.58
34674;BME280;20879;55.668;37.858;2023-08-06T10:52:52;99931.41;;;30.85;47.95
34674;BME280;20879;55.668;37.858;2023-08-06T10:55:25;99922.63;;;30.75;47.35
34674;BME280;20879;55.668;37.858;2023-08-06T10:58:02;99922.84;;;30.63;47.85
34674;BME280;20879;55.668;37.858;2023-08-06T11:00:32;99921.59;;;30.58;48.46
34674;BME280;20879;55.668;37.858;2023-08-06T11:03:03;99921.59;;;30.58;48.06
34674;BME280;20879;55.668;37.858;2023-08-06T11:05:41;99931.22;;;30.68;47.86
34674;BME280;20879;55.668;37.858;2023-08-06T11:08:11;99932.03;;;30.79;47.83
34674;BME280;20879;55.668;37.858;2023-08-06T11:10:40;99932.44;;;30.84;47.29
34674;BME280;20879;55.668;37.858;2023-08-06T11:13:28;99935.00;;;30.76;47.48
34674;BME280;20879;55.668;37.858;2023-08-06T11:15:59;99907.78;;;30.62;47.50
34674;BME280;20879;55.668;37.858;2023-08-06T11:18:28;99926.72;;;30.97;46.77
34674;BME280;20879;55.668;37.858;2023-08-06T11:21:01;99922.09;;;31.17;46.95
34674;BME280;20879;55.668;37.858;2023-08-06T11:23:32;99920.97;;;31.19;46.51
34674;BME280;20879;55.668;37.858;2023-08-06T11:26:02;99920.72;;;31.13;46.50
34674;BME280;20879;55.668;37.858;2023-08-06T11:28:33;99923.78;;;31.18;46.61
34674;BME280;20879;55.668;37.858;2023-08-06T11:31:02;99921.50;;;31.23;46.94
34674;BME280;20879;55.668;37.858;2023-08-06T11:33:32;99923.31;;;31.41;47.29
34674;BME280;20879;55.668;37.858;2023-08-06T11:36:04;99920.41;;;31.52;45.86
34674;BME280;20879;55.668;37.858;2023-08-06T11:38:34;99915.63;;;31.56;45.30
34674;BME280;20879;55.668;37.858;2023-08-06T11:41:06;99912.25;;;31.53;44.90
34674;BME280;20879;55.668;37.858;2023-08-06T11:43:36;99903.63;;;31.42;45.39
34674;BME280;20879;55.668;37.858;2023-08-06T11:46:05;99908.59;;;31.36;44.96
34674;BME280;20879;55.668;37.858;2023-08-06T11:48:51;99904.91;;;31.56;44.83
34674;BME280;20879;55.668;37.858;2023-08-06T11:51:26;99903.03;;;31.92;44.66
34674;BME280;20879;55.668;37.858;2023-08-06T11:54:00;99904.13;;;32.34;43.78
34674;BME280;20879;55.668;37.858;2023-08-06T11:56:36;99900.03;;;32.56;43.12
34674;BME280;20879;55.668;37.858;2023-08-06T11:59:07;99897.09;;;32.67;42.64
34674;BME280;20879;55.668;37.858;2023-08-06T12:01:38;99902.28;;;32.69;42.61
34674;BME280;20879;55.668;37.858;2023-08-06T12:04:12;99900.53;;;32.51;43.56
34674;BME280;20879;55.668;37.858;2023-08-06T12:06:45;99895.25;;;32.33;44.13
34674;BME280;20879;55.668;37.858;2023-08-06T12:09:16;99891.81;;;32.15;44.29
34674;BME280;20879;55.668;37.858;2023-08-06T12:11:51;99884.81;;;31.96;44.43
34674;BME280;20879;55.668;37.858;2023-08-06T12:14:21;99884.56;;;31.81;45.15
34674;BME280;20879;55.668;37.858;2023-08-06T12:16:51;99886.81;;;31.67;44.84
34674;BME280;20879;55.668;37.858;2023-08-06T12:19:22;99880.28;;;31.52;45.33
34674;BME280;20879;55.668;37.858;2023-08-06T12:21:55;99884.22;;;31.40;45.46
34674;BME280;20879;55.668;37.858;2023-08-06T12:24:24;99883.47;;;31.29;44.73
34674;BME280;20879;55.668;37.858;2023-08-06T12:26:54;99876.88;;;31.24;44.83
34674;BME280;20879;55.668;37.858;2023-08-06T12:29:25;99887.94;;;31.11;44.62
34674;BME280;20879;55.668;37.858;2023-08-06T12:31:56;99883.59;;;31.10;44.94
34674;BME280;20879;55.668;37.858;2023-08-06T12:34:34;99879.09;;;31.10;44.79
34674;BME280;20879;55.668;37.858;2023-08-06T12:37:20;99884.28;;;31.12;45.46
34674;BME280;20879;55.668;37.858;2023-08-06T12:39:50;99878.84;;;31.04;45.86
34674;BME280;20879;55.668;37.858;2023-08-06T12:42:20;99887.63;;;30.96;45.83
34674;BME280;20879;55.668;37.858;2023-08-06T12:49:55;99881.16;;;30.71;47.17
34674;BME280;20879;55.668;37.858;2023-08-06T12:52:25;99877.97;;;30.57;47.46
34674;BME280;20879;55.668;37.858;2023-08-06T12:54:56;99879.97;;;30.55;47.13
34674;BME280;20879;55.668;37.858;2023-08-06T12:57:26;99869.97;;;30.57;47.46
34674;BME280;20879;55.668;37.858;2023-08-06T13:00:17;99872.94;;;30.54;47.45
34674;BME280;20879;55.668;37.858;2023-08-06T13:02:49;99865.22;;;30.51;47.62
34674;BME280;20879;55.668;37.858;2023-08-06T13:05:23;99868.91;;;30.50;47.39
34674;BME280;20879;55.668;37.858;2023-08-06T13:07:54;99851.63;;;30.44;47.29
34674;BME280;20879;55.668;37.858;2023-08-06T13:10:23;99851.88;;;30.51;47.93
34674;BME280;20879;55.668;37.858;2023-08-06T13:12:59;99862.63;;;30.41;47.76
34674;BME280;20879;55.668;37.858;2023-08-06T13:15:29;99847.81;;;30.47;47.81
34674;BME280;20879;55.668;37.858;2023-08-06T13:17:58;99846.94;;;30.56;47.92
34674;BME280;20879;55.668;37.858;2023-08-06T13:20:39;99854.69;;;30.49;47.41